Archival Weather

Republic

Farmingdale, New York (KFRG)

Report from: Wednesday, February 14, 2024 8:53 PM EST
Current time: Saturday, June 22, 2024 5:39 AM EDT

Current weather – Weather history – Daily summaries
Weather forecast

Temperature-0.6°C (30.9°F)
Wind chill-6.3°C (20.7°F)
Dew point-12.2°C (10.0°F)
Winds 12 kts (6.2 m/s, 13.8 mph) Northwest (310°)
Wind gusts 24 kts (12.3 m/s, 27.6 mph)
Visibility10 mi. (16.1 km)
Clouds Sky clear
Altimeter30.10 in.Hg (1019 mB)
Relative humidity41 %
Density altitude-2,068 ft. (-630 m)
Sea-level pressure101.9 kPa (1019 mB, 30.10 in.Hg)
Remarks Automated weather observing station without precipitation discriminator
Flight conditions Visual Meteorological Conditions
Raw dataKFRG 150153Z 31012G24KT 10SM CLR M01/M12 A3010 RMK AO1 SLP192 T10061122
An error has occurred. This application may no longer respond until reloaded. Reload 🗙